Home > Products > Valid Products > MTR

000
SAUS45 KPUB 271857
MTRSPD
METAR KSPD 271856Z AUTO 21011KT 19/M06 A3020 RMK AO1 SLP207
T01891056





000
SAUS45 KPUB 271757
MTRSPD
METAR KSPD 271756Z AUTO 20008KT 17/M04 A3024 RMK AO1 SLP226
T01671039 10167 21061 58018





000
SAUS45 KPUB 271657
MTRSPD
METAR KSPD 271656Z AUTO 19006KT 12/M02 A3027 RMK AO1 SLP245
T01171017





000
SAUS45 KPUB 271557
MTRSPD
METAR KSPD 271556Z AUTO 00000KT 08/M01 A3029 RMK AO1 SLP260
T00781011





000
SAUS45 KPUB 271457
MTRSPD
METAR KSPD 271456Z AUTO 23004KT M01/M04 A3030 RMK AO1 SLP277
T10111044 55003





000
SAUS45 KPUB 271357
MTRSPD
METAR KSPD 271356Z AUTO 26005KT M04/M06 A3029 RMK AO1 SLP278
T10391056





000
SAUS45 KPUB 271257
MTRSPD
METAR KSPD 271256Z AUTO 23004KT M06/M07 A3030 RMK AO1 SLP278
T10561072





000
SAUS45 KPUB 271157
MTRSPD
METAR KSPD 271156Z AUTO 23005KT M05/M07 A3031 RMK AO1 SLP281
T10501067 11011 21050 58007





000
SAUS45 KPUB 271057
MTRSPD
METAR KSPD 271056Z AUTO 22006KT M04/M06 A3031 RMK AO1 SLP272
T10391061





000
SAUS45 KPUB 270957
MTRSPD
METAR KSPD 270956Z AUTO 20012KT M02/M06 A3033 RMK AO1 SLP272
T10221056





000
SAUS45 KPUB 270957
MTRSPD
METAR KSPD 270956Z AUTO 20012KT M02/M06 A3033 RMK AO1 SLP272
T10221056





000
SAUS45 KPUB 270857
MTRSPD
METAR KSPD 270856Z AUTO 19012KT M01/M06 A3033 RMK AO1 SLP272
T10111061 56006





000
SAUS45 KPUB 270757
MTRSPD
METAR KSPD 270756Z AUTO 21009KT M02/M07 A3033 RMK AO1 SLP274
T10221067





000
SAUS45 KPUB 270658
MTRSPD
METAR KSPD 270656Z AUTO 21006KT M03/M07 A3034 RMK AO1 SLP280
T10331067 400671050





000
SAUS45 KPUB 270557
MTRSPD
METAR KSPD 270556Z AUTO 19006KT M05/M08 A3035 RMK AO1 SLP287
T10501078 10006 21050 53005





000
SAUS45 KPUB 270457
MTRSPD
METAR KSPD 270456Z AUTO 20008KT M04/M07 A3034 RMK AO1 SLP286
T10441072





000
SAUS45 KPUB 270357
MTRSPD
METAR KSPD 270356Z AUTO 19006KT M04/M08 A3034 RMK AO1 SLP289
T10441078





000
SAUS45 KPUB 270357
MTRSPD
METAR KSPD 270356Z AUTO 19006KT M04/M08 A3034 RMK AO1 SLP289
T10441078





000
SAUS45 KPUB 270258
MTRSPD
METAR KSPD 270256Z AUTO 06003KT M04/M07 A3033 RMK AO1 SLP290
T10391072 51019





000
SAUS45 KPUB 270157
MTRSPD
METAR KSPD 270156Z AUTO 15009KT M02/M07 A3030 RMK AO1 SLP281
T10171067





000
SAUS45 KPUB 270057
MTRSPD
METAR KSPD 270056Z AUTO 09006KT M01/M07 A3030 RMK AO1 SLP279
T10061067





000
SAUS45 KPUB 262357
MTRSPD
METAR KSPD 262356Z AUTO 11007KT 01/M06 A3027 RMK AO1 SLP265
T00061061 10067 20000 53012





000
SAUS45 KPUB 262257
MTRSPD
METAR KSPD 262256Z AUTO 16004KT 05/M06 A3024 RMK AO1 SLP248
T00501056





000
SAUS45 KPUB 262157
MTRSPD
METAR KSPD 262156Z AUTO 00000KT 07/M06 A3025 RMK AO1 SLP247
T00671056





000
SAUS45 KPUB 262157
MTRSPD
METAR KSPD 262156Z AUTO 00000KT 07/M06 A3025 RMK AO1 SLP247
T00671056





000
SAUS45 KPUB 262057
MTRSPD
METAR KSPD 262056Z AUTO 11004KT 06/M06 A3023 RMK AO1 SLP235
T00561061 58004





000
SAUS45 KPUB 261957
MTRSPD
METAR KSPD 261956Z AUTO 31005KT 06/M06 A3024 RMK AO1 SLP240
T00611056





000
SAUS45 KPUB 261857
MTRSPD
METAR KSPD 261856Z AUTO 01006KT 06/M06 A3023 RMK AO1 SLP233
T00561056





000
SAUS45 KPUB 261757
MTRSPD
METAR KSPD 261756Z AUTO 35011G15KT 05/M05 A3024 RMK AO1 SLP238
T00501050 10050 21050 58004





000
SAUS45 KPUB 261657
MTRSPD
METAR KSPD 261656Z AUTO 33011KT 03/M05 A3025 RMK AO1 SLP241
T00331050





000
SAUS45 KPUB 261558
MTRSPD
METAR KSPD 261556Z AUTO 34014KT 02/M04 A3027 RMK AO1 SLP253
T00171039





000
SAUS45 KPUB 261458
MTRSPD
METAR KSPD 261456Z AUTO 32007KT M01/M03 A3026 RMK AO1 SLP259
T10061033 51019





000
SAUS45 KPUB 261357
MTRSPD
METAR KSPD 261356Z AUTO 29009KT M04/M06 A3024 RMK AO1 SLP263
T10441056





000
SAUS45 KPUB 261257
MTRSPD
METAR KSPD 261256Z AUTO 30009KT M04/M05 A3023 RMK AO1 SLP254
T10391050





000
SAUS45 KPUB 261157
MTRSPD
METAR KSPD 261156Z AUTO 32006KT M04/M04 A3019 RMK AO1 SLP232
T10391044 10022 21044 51024





000
SAUS45 KPUB 261057
MTRSPD
METAR KSPD 261056Z AUTO 30007KT M04/M05 A3016 RMK AO1 SLP213
T10391050





000
SAUS45 KPUB 260957
MTRSPD
METAR KSPD 260956Z AUTO 33008KT M03/M04 A3015 RMK AO1 SLP206
T10331039





000
SAUS45 KPUB 260957
MTRSPD
METAR KSPD 260956Z AUTO 33008KT M03/M04 A3015 RMK AO1 SLP206
T10331039





000
SAUS45 KPUB 260857
MTRSPD
METAR KSPD 260856Z AUTO 01014G22KT 00/M03 A3011 RMK AO1 PRESRR
SLP185 T00001028 51039





000
SAUS45 KPUB 260757
MTRSPD
METAR KSPD 260756Z AUTO 36013KT M01/M04 A3007 RMK AO1 WSHFT 0643
SLP171 T10061039





000
SAUS45 KPUB 260705
MTRSPD
SPECI KSPD 260703Z AUTO 01019KT 02/M06 A3003 RMK AO1 WSHFT 0643
PRESRR T00171056





000
SAUS45 KPUB 260657
MTRSPD
METAR KSPD 260656Z AUTO 36016G23KT 02/M06 A3002 RMK AO1 SLP156
T00221061 401111078





000
SAUS45 KPUB 260558
MTRSPD
METAR KSPD 260556Z AUTO 29010KT 02/M06 A2998 RMK AO1 SLP142
T00171061 10039 21033 53013





000
SAUS45 KPUB 260458
MTRSPD
METAR KSPD 260456Z AUTO 28012KT 03/M07 A2995 RMK AO1 SLP136
T00331067





000
SAUS45 KPUB 260357
MTRSPD
METAR KSPD 260356Z AUTO 29008KT 02/M07 A2994 RMK AO1 SLP140
T00171067





000
SAUS45 KPUB 260357
MTRSPD
METAR KSPD 260356Z AUTO 29008KT 02/M07 A2994 RMK AO1 SLP140
T00171067





000
SAUS45 KPUB 260257
MTRSPD
METAR KSPD 260256Z AUTO 28006KT M02/M08 A2993 RMK AO1 SLP151
T10221083 50006





000
SAUS45 KPUB 260157
MTRSPD
METAR KSPD 260156Z AUTO 29003KT M03/M09 A2994 RMK AO1 SLP160
T10281094





000
SAUS45 KPUB 260057
MTRSPD
METAR KSPD 260056Z AUTO 29005KT M02/M10 A2993 RMK AO1 SLP154
T10171100





000
SAUS45 KPUB 252357
MTRSPD
METAR KSPD 252356Z AUTO 28009KT 04/M10 A2991 RMK AO1 SLP139
T00391100 10111 20039 55004





000
SAUS45 KPUB 252257
MTRSPD
METAR KSPD 252256Z AUTO 29007KT 09/M11 A2991 RMK AO1 SLP130
T00941106





000
SAUS45 KPUB 252157
MTRSPD
METAR KSPD 252156Z AUTO 29016G21KT 10/M12 A2992 RMK AO1 SLP128
T01001117





000
SAUS45 KPUB 252157
MTRSPD
METAR KSPD 252156Z AUTO 29016G21KT 10/M12 A2992 RMK AO1 SLP128
T01001117





000
SAUS45 KPUB 252057
MTRSPD
METAR KSPD 252056Z AUTO 28014G22KT 11/M12 A2993 RMK AO1 SLP130
T01061117 56034





000
SAUS45 KPUB 251957
MTRSPD
METAR KSPD 251956Z AUTO 25012G18KT 10/M13 A2995 RMK AO1 SLP138
T01001128





000
SAUS45 KPUB 251857
MTRSPD
METAR KSPD 251856Z AUTO 22013G21KT 08/M13 A2999 RMK AO1 SLP157
T00781128





000
SAUS45 KPUB 251757
MTRSPD
METAR KSPD 251756Z AUTO 21014G19KT 07/M12 A3004 RMK AO1 SLP176
T00671117 10067 21072 58039





000
SAUS45 KPUB 251657
MTRSPD
METAR KSPD 251656Z AUTO 22012G18KT 04/M09 A3010 RMK AO1 SLP199
T00441089





000
SAUS45 KPUB 251657
MTRSPD
METAR KSPD 251656Z AUTO 22012G18KT 04/M09 A3010 RMK AO1 SLP199
T00441089





000
SAUS45 KPUB 251557
MTRSPD
METAR KSPD 251556Z AUTO 23016G23KT 01/M08 A3014 RMK AO1 SLP214
T00111083





000
SAUS45 KPUB 251457
MTRSPD
METAR KSPD 251456Z AUTO 23010KT M02/M07 A3017 RMK AO1 SLP228
T10221072 58011





000
SAUS45 KPUB 251357
MTRSPD
METAR KSPD 251356Z AUTO 24008KT M07/M09 A3019 RMK AO1 SLP241
T10671089





000
SAUS45 KPUB 251257
MTRSPD
METAR KSPD 251256Z AUTO 24009KT M07/M09 A3020 RMK AO1 SLP244
T10671089





000
SAUS45 KPUB 251157
MTRSPD
METAR KSPD 251156Z AUTO 25009KT M06/M09 A3021 RMK AO1 SLP246
T10611089 11028 21078 58006





000
SAUS45 KPUB 251057
MTRSPD
METAR KSPD 251056Z AUTO 28006KT M07/M09 A3022 RMK AO1 SLP247
T10721089





000
SAUS45 KPUB 251057
MTRSPD
METAR KSPD 251056Z AUTO 28006KT M07/M09 A3022 RMK AO1 SLP247
T10721089





000
SAUS45 KPUB 250957
MTRSPD
METAR KSPD 250956Z AUTO 29009KT M06/M09 A3024 RMK AO1 SLP246
T10611089





000
SAUS45 KPUB 250857
MTRSPD
METAR KSPD 250856Z AUTO 29011KT M05/M08 A3023 RMK AO1 SLP241
T10501078 58002





000
SAUS45 KPUB 250757
MTRSPD
METAR KSPD 250756Z AUTO 29010KT M06/M08 A3024 RMK AO1 SLP245
T10561083





000
SAUS45 KPUB 250657
MTRSPD
METAR KSPD 250656Z AUTO 31010KT M04/M08 A3025 RMK AO1 SLP247
T10441078 400781056





000
SAUS45 KPUB 250557
MTRSPD
METAR KSPD 250556Z AUTO 32009KT M04/M08 A3024 RMK AO1 SLP247
T10441078 10039 21044 50016





000
SAUS45 KPUB 250457
MTRSPD
METAR KSPD 250456Z AUTO 30011KT M04/M08 A3025 RMK AO1 SLP249
T10391078





000
SAUS45 KPUB 250357
MTRSPD
METAR KSPD 250356Z AUTO 33012KT M02/M07 A3022 RMK AO1 SLP240
T10171072





000
SAUS45 KPUB 250357
MTRSPD
METAR KSPD 250356Z AUTO 33012KT M02/M07 A3022 RMK AO1 SLP240
T10171072





000
SAUS45 KPUB 250257
MTRSPD
METAR KSPD 250256Z AUTO 35014KT 01/M07 A3019 RMK AO1 PK WND
36026/0222 SLP228 T00061072 51036





000
SAUS45 KPUB 250157
MTRSPD
METAR KSPD 250156Z AUTO 35013KT 01/M08 A3015 RMK AO1 SLP225
T00111078





000
SAUS45 KPUB 250057
MTRSPD
METAR KSPD 250056Z AUTO 36016KT 02/M09 A3011 RMK AO1 SLP209
T00221089





000
SAUS45 KPUB 242357
MTRSPD
METAR KSPD 242356Z AUTO 33010KT 02/M09 A3007 RMK AO1 SLP192
T00221094 10078 20011 53028





000
SAUS45 KPUB 242257
MTRSPD
METAR KSPD 242256Z AUTO 34007KT 04/M10 A3003 RMK AO1 SLP174
T00391100





000
SAUS45 KPUB 242157
MTRSPD
METAR KSPD 242156Z AUTO 34013KT 07/M13 A2999 RMK AO1 SLP159
T00671128





000
SAUS45 KPUB 242057
MTRSPD
METAR KSPD 242056Z AUTO 32016G22KT 08/M14 A2997 RMK AO1 SLP149
T00781139 55001





000
SAUS45 KPUB 241957
MTRSPD
METAR KSPD 241956Z AUTO 32013G19KT 06/M14 A2997 RMK AO1 SLP149
T00611139





    US Dept of Commerce
    National Oceanic and Atmospheric Administration
    National Weather Service
    1325 East West Highway
    Silver Spring, MD 20910
    Page Author: NWS Internet Services Team
Disclaimer
Information Quality
Credits
Glossary
Privacy Policy
Freedom of Information Act (FOIA)
About Us
Career Opportunities